sensor_id;sensor_type;location;lat;lon;timestamp;P1;durP1;ratioP1;P2;durP2;ratioP2
60502;SDS011;51448;51.660;5.824;2022-09-27T00:01:27;5.13;;;1.17;;
60502;SDS011;51448;51.660;5.824;2022-09-27T00:03:55;8.23;;;1.63;;
60502;SDS011;51448;51.660;5.824;2022-09-27T00:06:26;9.70;;;1.75;;
60502;SDS011;51448;51.660;5.824;2022-09-27T00:08:57;9.77;;;1.90;;
60502;SDS011;51448;51.660;5.824;2022-09-27T00:11:26;11.20;;;2.05;;
60502;SDS011;51448;51.660;5.824;2022-09-27T00:14:06;11.48;;;1.83;;
60502;SDS011;51448;51.660;5.824;2022-09-27T00:16:35;12.48;;;2.05;;
60502;SDS011;51448;51.660;5.824;2022-09-27T00:19:06;8.27;;;1.38;;
60502;SDS011;51448;51.660;5.824;2022-09-27T00:21:42;8.30;;;1.50;;
60502;SDS011;51448;51.660;5.824;2022-09-27T00:24:12;8.43;;;1.67;;
60502;SDS011;51448;51.660;5.824;2022-09-27T00:26:42;9.53;;;1.50;;
60502;SDS011;51448;51.660;5.824;2022-09-27T00:29:10;9.32;;;1.30;;
60502;SDS011;51448;51.660;5.824;2022-09-27T00:31:38;7.10;;;1.65;;
60502;SDS011;51448;51.660;5.824;2022-09-27T00:34:06;9.52;;;1.35;;
60502;SDS011;51448;51.660;5.824;2022-09-27T00:36:44;10.48;;;1.35;;
60502;SDS011;51448;51.660;5.824;2022-09-27T00:39:12;11.20;;;1.80;;
60502;SDS011;51448;51.660;5.824;2022-09-27T00:41:41;9.18;;;1.75;;
60502;SDS011;51448;51.660;5.824;2022-09-27T00:46:57;9.73;;;1.80;;
60502;SDS011;51448;51.660;5.824;2022-09-27T00:49:33;7.82;;;1.65;;
60502;SDS011;51448;51.660;5.824;2022-09-27T00:54:51;7.85;;;1.58;;
60502;SDS011;51448;51.660;5.824;2022-09-27T00:57:26;6.60;;;1.30;;
60502;SDS011;51448;51.660;5.824;2022-09-27T01:00:03;7.88;;;1.55;;
60502;SDS011;51448;51.660;5.824;2022-09-27T01:02:36;13.85;;;1.98;;
60502;SDS011;51448;51.660;5.824;2022-09-27T01:05:09;13.80;;;1.90;;
60502;SDS011;51448;51.660;5.824;2022-09-27T01:07:39;11.43;;;1.75;;
60502;SDS011;51448;51.660;5.824;2022-09-27T01:10:08;13.00;;;2.20;;
60502;SDS011;51448;51.660;5.824;2022-09-27T01:15:33;7.68;;;1.30;;
60502;SDS011;51448;51.660;5.824;2022-09-27T01:24:40;7.18;;;1.50;;
60502;SDS011;51448;51.660;5.824;2022-09-27T01:27:52;11.38;;;1.70;;
60502;SDS011;51448;51.660;5.824;2022-09-27T01:30:46;9.52;;;1.75;;
60502;SDS011;51448;51.660;5.824;2022-09-27T01:36:19;7.07;;;1.30;;
60502;SDS011;51448;51.660;5.824;2022-09-27T01:42:47;11.38;;;1.20;;
60502;SDS011;51448;51.660;5.824;2022-09-27T01:45:30;9.65;;;1.73;;
60502;SDS011;51448;51.660;5.824;2022-09-27T01:48:50;5.43;;;1.13;;
60502;SDS011;51448;51.660;5.824;2022-09-27T01:51:22;7.30;;;1.50;;
60502;SDS011;51448;51.660;5.824;2022-09-27T01:54:01;6.32;;;1.10;;
60502;SDS011;51448;51.660;5.824;2022-09-27T01:56:59;9.13;;;1.55;;
60502;SDS011;51448;51.660;5.824;2022-09-27T01:59:45;6.63;;;1.23;;
60502;SDS011;51448;51.660;5.824;2022-09-27T02:02:39;5.68;;;1.20;;
60502;SDS011;51448;51.660;5.824;2022-09-27T02:05:44;8.32;;;1.33;;
60502;SDS011;51448;51.660;5.824;2022-09-27T02:08:43;8.93;;;1.20;;
60502;SDS011;51448;51.660;5.824;2022-09-27T02:11:35;6.20;;;1.10;;
60502;SDS011;51448;51.660;5.824;2022-09-27T02:14:15;9.07;;;1.20;;
60502;SDS011;51448;51.660;5.824;2022-09-27T02:17:08;6.72;;;0.90;;
60502;SDS011;51448;51.660;5.824;2022-09-27T02:19:40;7.43;;;1.35;;
60502;SDS011;51448;51.660;5.824;2022-09-27T02:22:36;9.60;;;1.33;;
60502;SDS011;51448;51.660;5.824;2022-09-27T02:25:22;5.00;;;0.95;;
60502;SDS011;51448;51.660;5.824;2022-09-27T02:30:58;7.85;;;1.30;;
60502;SDS011;51448;51.660;5.824;2022-09-27T02:33:35;7.05;;;1.00;;
60502;SDS011;51448;51.660;5.824;2022-09-27T02:36:11;6.38;;;0.90;;
60502;SDS011;51448;51.660;5.824;2022-09-27T02:38:39;10.57;;;1.25;;
60502;SDS011;51448;51.660;5.824;2022-09-27T02:41:14;7.38;;;1.00;;
60502;SDS011;51448;51.660;5.824;2022-09-27T02:43:44;5.72;;;0.95;;
60502;SDS011;51448;51.660;5.824;2022-09-27T02:52:49;7.68;;;1.00;;
60502;SDS011;51448;51.660;5.824;2022-09-27T02:59:32;10.15;;;1.33;;
60502;SDS011;51448;51.660;5.824;2022-09-27T03:05:40;7.70;;;1.58;;
60502;SDS011;51448;51.660;5.824;2022-09-27T03:08:15;9.13;;;1.25;;
60502;SDS011;51448;51.660;5.824;2022-09-27T03:10:43;8.73;;;1.42;;
60502;SDS011;51448;51.660;5.824;2022-09-27T03:13:11;6.60;;;1.60;;
60502;SDS011;51448;51.660;5.824;2022-09-27T03:15:39;7.40;;;1.75;;
60502;SDS011;51448;51.660;5.824;2022-09-27T03:18:07;6.53;;;1.25;;
60502;SDS011;51448;51.660;5.824;2022-09-27T03:20:52;6.78;;;1.00;;
60502;SDS011;51448;51.660;5.824;2022-09-27T03:23:22;6.28;;;1.00;;
60502;SDS011;51448;51.660;5.824;2022-09-27T03:25:50;7.43;;;1.50;;
60502;SDS011;51448;51.660;5.824;2022-09-27T03:28:18;8.95;;;1.30;;
60502;SDS011;51448;51.660;5.824;2022-09-27T03:30:46;7.60;;;1.35;;
60502;SDS011;51448;51.660;5.824;2022-09-27T03:33:38;11.43;;;1.27;;
60502;SDS011;51448;51.660;5.824;2022-09-27T03:36:09;5.03;;;1.00;;
60502;SDS011;51448;51.660;5.824;2022-09-27T03:38:39;8.35;;;1.52;;
60502;SDS011;51448;51.660;5.824;2022-09-27T03:41:10;6.53;;;1.20;;
60502;SDS011;51448;51.660;5.824;2022-09-27T03:43:38;5.95;;;1.40;;
60502;SDS011;51448;51.660;5.824;2022-09-27T03:46:06;8.25;;;1.17;;
60502;SDS011;51448;51.660;5.824;2022-09-27T03:48:33;7.18;;;1.20;;
60502;SDS011;51448;51.660;5.824;2022-09-27T03:51:01;8.15;;;1.20;;
60502;SDS011;51448;51.660;5.824;2022-09-27T03:53:30;8.07;;;1.25;;
60502;SDS011;51448;51.660;5.824;2022-09-27T03:55:57;7.82;;;1.20;;
60502;SDS011;51448;51.660;5.824;2022-09-27T03:58:25;7.45;;;1.20;;
60502;SDS011;51448;51.660;5.824;2022-09-27T04:00:52;7.50;;;1.23;;
60502;SDS011;51448;51.660;5.824;2022-09-27T04:03:20;5.95;;;1.00;;
60502;SDS011;51448;51.660;5.824;2022-09-27T04:06:08;6.95;;;1.38;;
60502;SDS011;51448;51.660;5.824;2022-09-27T04:08:42;10.02;;;1.52;;
60502;SDS011;51448;51.660;5.824;2022-09-27T04:11:10;9.48;;;1.27;;
60502;SDS011;51448;51.660;5.824;2022-09-27T04:13:41;6.03;;;1.30;;
60502;SDS011;51448;51.660;5.824;2022-09-27T04:16:09;8.68;;;1.58;;
60502;SDS011;51448;51.660;5.824;2022-09-27T04:18:50;10.23;;;1.30;;
60502;SDS011;51448;51.660;5.824;2022-09-27T04:21:37;8.75;;;1.30;;
60502;SDS011;51448;51.660;5.824;2022-09-27T04:24:07;9.88;;;1.10;;
60502;SDS011;51448;51.660;5.824;2022-09-27T04:26:38;6.60;;;1.20;;
60502;SDS011;51448;51.660;5.824;2022-09-27T04:29:12;9.20;;;2.22;;
60502;SDS011;51448;51.660;5.824;2022-09-27T04:31:49;7.35;;;1.35;;
60502;SDS011;51448;51.660;5.824;2022-09-27T04:34:30;6.03;;;1.03;;
60502;SDS011;51448;51.660;5.824;2022-09-27T04:37:21;6.77;;;0.97;;
60502;SDS011;51448;51.660;5.824;2022-09-27T04:39:53;6.80;;;1.20;;
60502;SDS011;51448;51.660;5.824;2022-09-27T04:42:20;6.55;;;1.00;;
60502;SDS011;51448;51.660;5.824;2022-09-27T04:44:48;7.30;;;1.02;;
60502;SDS011;51448;51.660;5.824;2022-09-27T04:47:15;3.40;;;0.60;;
60502;SDS011;51448;51.660;5.824;2022-09-27T04:49:44;5.30;;;0.68;;
60502;SDS011;51448;51.660;5.824;2022-09-27T04:52:14;5.30;;;0.80;;
60502;SDS011;51448;51.660;5.824;2022-09-27T04:54:42;5.90;;;0.80;;
60502;SDS011;51448;51.660;5.824;2022-09-27T04:57:11;4.38;;;0.70;;
60502;SDS011;51448;51.660;5.824;2022-09-27T04:59:39;5.00;;;0.40;;
60502;SDS011;51448;51.660;5.824;2022-09-27T05:02:07;4.65;;;0.60;;
60502;SDS011;51448;51.660;5.824;2022-09-27T05:04:54;2.25;;;0.50;;
60502;SDS011;51448;51.660;5.824;2022-09-27T05:07:28;4.45;;;0.60;;
60502;SDS011;51448;51.660;5.824;2022-09-27T05:10:02;3.17;;;0.50;;
60502;SDS011;51448;51.660;5.824;2022-09-27T05:12:31;4.25;;;0.85;;
60502;SDS011;51448;51.660;5.824;2022-09-27T05:15:13;5.15;;;0.93;;
60502;SDS011;51448;51.660;5.824;2022-09-27T05:18:13;4.82;;;0.80;;
60502;SDS011;51448;51.660;5.824;2022-09-27T05:20:59;3.15;;;0.77;;
60502;SDS011;51448;51.660;5.824;2022-09-27T05:23:34;3.75;;;0.80;;
60502;SDS011;51448;51.660;5.824;2022-09-27T05:26:02;4.32;;;0.55;;
60502;SDS011;51448;51.660;5.824;2022-09-27T05:28:34;4.32;;;0.80;;
60502;SDS011;51448;51.660;5.824;2022-09-27T05:31:01;5.65;;;0.77;;
60502;SDS011;51448;51.660;5.824;2022-09-27T05:33:29;4.82;;;0.82;;
60502;SDS011;51448;51.660;5.824;2022-09-27T05:36:15;3.90;;;0.60;;
60502;SDS011;51448;51.660;5.824;2022-09-27T05:38:43;4.75;;;0.75;;
60502;SDS011;51448;51.660;5.824;2022-09-27T05:41:11;3.90;;;0.63;;
60502;SDS011;51448;51.660;5.824;2022-09-27T05:43:39;5.35;;;0.60;;
60502;SDS011;51448;51.660;5.824;2022-09-27T05:46:07;4.95;;;0.85;;
60502;SDS011;51448;51.660;5.824;2022-09-27T05:48:37;5.00;;;0.70;;
60502;SDS011;51448;51.660;5.824;2022-09-27T05:51:06;3.60;;;0.77;;
60502;SDS011;51448;51.660;5.824;2022-09-27T05:53:37;2.97;;;0.63;;
60502;SDS011;51448;51.660;5.824;2022-09-27T05:56:07;5.45;;;0.50;;
60502;SDS011;51448;51.660;5.824;2022-09-27T05:58:58;3.90;;;0.70;;
60502;SDS011;51448;51.660;5.824;2022-09-27T06:01:32;4.70;;;0.50;;
60502;SDS011;51448;51.660;5.824;2022-09-27T06:04:18;3.90;;;0.70;;
60502;SDS011;51448;51.660;5.824;2022-09-27T06:07:00;4.80;;;0.85;;
60502;SDS011;51448;51.660;5.824;2022-09-27T06:09:28;4.30;;;0.80;;
60502;SDS011;51448;51.660;5.824;2022-09-27T06:11:56;3.30;;;0.40;;
60502;SDS011;51448;51.660;5.824;2022-09-27T06:14:24;3.70;;;0.50;;
60502;SDS011;51448;51.660;5.824;2022-09-27T06:16:59;3.42;;;0.60;;
60502;SDS011;51448;51.660;5.824;2022-09-27T06:19:30;1.95;;;0.60;;
60502;SDS011;51448;51.660;5.824;2022-09-27T06:21:58;7.55;;;0.80;;
60502;SDS011;51448;51.660;5.824;2022-09-27T06:24:34;3.75;;;0.88;;
60502;SDS011;51448;51.660;5.824;2022-09-27T06:27:07;4.78;;;0.60;;
60502;SDS011;51448;51.660;5.824;2022-09-27T06:29:45;4.57;;;0.80;;
60502;SDS011;51448;51.660;5.824;2022-09-27T06:32:22;4.18;;;0.70;;
60502;SDS011;51448;51.660;5.824;2022-09-27T06:34:57;3.38;;;0.60;;
60502;SDS011;51448;51.660;5.824;2022-09-27T06:37:25;2.70;;;0.60;;
60502;SDS011;51448;51.660;5.824;2022-09-27T06:39:53;4.63;;;0.60;;
60502;SDS011;51448;51.660;5.824;2022-09-27T06:42:40;4.95;;;0.68;;
60502;SDS011;51448;51.660;5.824;2022-09-27T06:45:16;5.50;;;0.88;;
60502;SDS011;51448;51.660;5.824;2022-09-27T06:48:03;4.60;;;0.80;;
60502;SDS011;51448;51.660;5.824;2022-09-27T06:50:45;3.20;;;0.60;;
60502;SDS011;51448;51.660;5.824;2022-09-27T06:53:15;4.93;;;0.82;;
60502;SDS011;51448;51.660;5.824;2022-09-27T06:55:49;7.60;;;1.33;;
60502;SDS011;51448;51.660;5.824;2022-09-27T06:58:45;7.78;;;1.10;;
60502;SDS011;51448;51.660;5.824;2022-09-27T07:01:54;6.22;;;1.20;;
60502;SDS011;51448;51.660;5.824;2022-09-27T07:04:46;4.50;;;1.23;;
60502;SDS011;51448;51.660;5.824;2022-09-27T07:07:27;5.60;;;1.00;;
60502;SDS011;51448;51.660;5.824;2022-09-27T07:09:55;4.38;;;0.80;;
60502;SDS011;51448;51.660;5.824;2022-09-27T07:12:26;4.07;;;0.70;;
60502;SDS011;51448;51.660;5.824;2022-09-27T07:14:54;6.30;;;0.77;;
60502;SDS011;51448;51.660;5.824;2022-09-27T07:17:22;4.30;;;0.70;;
60502;SDS011;51448;51.660;5.824;2022-09-27T07:19:50;3.97;;;0.80;;
60502;SDS011;51448;51.660;5.824;2022-09-27T07:22:18;5.20;;;0.80;;
60502;SDS011;51448;51.660;5.824;2022-09-27T07:24:53;6.88;;;1.17;;
60502;SDS011;51448;51.660;5.824;2022-09-27T07:27:21;5.15;;;0.95;;
60502;SDS011;51448;51.660;5.824;2022-09-27T07:29:51;5.45;;;0.98;;
60502;SDS011;51448;51.660;5.824;2022-09-27T07:32:18;3.33;;;0.95;;
60502;SDS011;51448;51.660;5.824;2022-09-27T07:34:46;3.38;;;1.08;;
60502;SDS011;51448;51.660;5.824;2022-09-27T07:37:14;4.63;;;1.20;;
60502;SDS011;51448;51.660;5.824;2022-09-27T07:39:43;4.03;;;1.38;;
60502;SDS011;51448;51.660;5.824;2022-09-27T07:42:12;4.03;;;1.20;;
60502;SDS011;51448;51.660;5.824;2022-09-27T07:44:43;4.30;;;1.20;;
60502;SDS011;51448;51.660;5.824;2022-09-27T07:47:29;5.82;;;1.63;;
60502;SDS011;51448;51.660;5.824;2022-09-27T07:50:09;5.47;;;1.50;;
60502;SDS011;51448;51.660;5.824;2022-09-27T07:53:03;3.50;;;1.42;;
60502;SDS011;51448;51.660;5.824;2022-09-27T07:56:00;3.90;;;1.40;;
60502;SDS011;51448;51.660;5.824;2022-09-27T07:58:31;4.72;;;1.77;;
60502;SDS011;51448;51.660;5.824;2022-09-27T08:01:01;6.00;;;1.95;;
60502;SDS011;51448;51.660;5.824;2022-09-27T08:03:28;7.38;;;2.40;;
60502;SDS011;51448;51.660;5.824;2022-09-27T08:06:00;5.75;;;1.85;;
60502;SDS011;51448;51.660;5.824;2022-09-27T08:08:30;5.93;;;1.90;;
60502;SDS011;51448;51.660;5.824;2022-09-27T08:10:58;6.03;;;2.20;;
60502;SDS011;51448;51.660;5.824;2022-09-27T08:13:26;6.25;;;2.00;;
60502;SDS011;51448;51.660;5.824;2022-09-27T08:15:54;4.90;;;2.13;;
60502;SDS011;51448;51.660;5.824;2022-09-27T08:18:32;8.25;;;2.50;;
60502;SDS011;51448;51.660;5.824;2022-09-27T08:21:18;5.88;;;2.38;;
60502;SDS011;51448;51.660;5.824;2022-09-27T08:27:03;4.70;;;2.60;;
60502;SDS011;51448;51.660;5.824;2022-09-27T08:29:52;7.93;;;3.00;;
60502;SDS011;51448;51.660;5.824;2022-09-27T08:32:19;5.60;;;3.10;;
60502;SDS011;51448;51.660;5.824;2022-09-27T08:34:50;5.63;;;3.30;;
60502;SDS011;51448;51.660;5.824;2022-09-27T08:37:23;6.35;;;2.80;;
60502;SDS011;51448;51.660;5.824;2022-09-27T08:39:51;5.55;;;2.85;;
60502;SDS011;51448;51.660;5.824;2022-09-27T08:42:31;5.40;;;2.67;;
60502;SDS011;51448;51.660;5.824;2022-09-27T08:45:21;5.25;;;2.72;;
60502;SDS011;51448;51.660;5.824;2022-09-27T08:48:13;7.90;;;3.00;;
60502;SDS011;51448;51.660;5.824;2022-09-27T08:50:44;7.13;;;3.20;;
60502;SDS011;51448;51.660;5.824;2022-09-27T08:53:19;6.00;;;3.10;;
60502;SDS011;51448;51.660;5.824;2022-09-27T08:55:53;6.38;;;2.95;;
60502;SDS011;51448;51.660;5.824;2022-09-27T08:58:32;6.15;;;3.08;;
60502;SDS011;51448;51.660;5.824;2022-09-27T09:01:14;6.32;;;3.53;;
60502;SDS011;51448;51.660;5.824;2022-09-27T09:03:52;6.40;;;3.78;;
60502;SDS011;51448;51.660;5.824;2022-09-27T09:06:26;10.38;;;3.95;;
60502;SDS011;51448;51.660;5.824;2022-09-27T09:09:18;7.88;;;4.07;;
60502;SDS011;51448;51.660;5.824;2022-09-27T09:15:25;6.53;;;3.85;;
60502;SDS011;51448;51.660;5.824;2022-09-27T09:21:58;7.23;;;4.70;;
60502;SDS011;51448;51.660;5.824;2022-09-27T09:27:53;9.35;;;6.03;;
60502;SDS011;51448;51.660;5.824;2022-09-27T09:30:48;8.32;;;5.60;;
60502;SDS011;51448;51.660;5.824;2022-09-27T09:33:48;10.80;;;6.25;;
60502;SDS011;51448;51.660;5.824;2022-09-27T09:36:38;10.55;;;6.88;;
60502;SDS011;51448;51.660;5.824;2022-09-27T09:39:37;9.93;;;6.72;;
60502;SDS011;51448;51.660;5.824;2022-09-27T09:44:59;9.60;;;7.47;;
60502;SDS011;51448;51.660;5.824;2022-09-27T09:47:40;12.48;;;7.80;;
60502;SDS011;51448;51.660;5.824;2022-09-27T09:50:25;13.13;;;8.35;;
60502;SDS011;51448;51.660;5.824;2022-09-27T09:53:03;10.75;;;7.18;;
60502;SDS011;51448;51.660;5.824;2022-09-27T09:55:59;11.98;;;8.23;;
60502;SDS011;51448;51.660;5.824;2022-09-27T09:58:35;9.30;;;7.78;;
60502;SDS011;51448;51.660;5.824;2022-09-27T10:04:02;9.85;;;7.85;;
60502;SDS011;51448;51.660;5.824;2022-09-27T10:06:30;11.65;;;7.90;;
60502;SDS011;51448;51.660;5.824;2022-09-27T10:09:00;9.73;;;7.97;;
60502;SDS011;51448;51.660;5.824;2022-09-27T10:11:43;7.93;;;6.90;;
60502;SDS011;51448;51.660;5.824;2022-09-27T10:14:16;11.10;;;7.78;;
60502;SDS011;51448;51.660;5.824;2022-09-27T10:16:54;14.93;;;9.48;;
60502;SDS011;51448;51.660;5.824;2022-09-27T10:19:28;10.93;;;7.97;;
60502;SDS011;51448;51.660;5.824;2022-09-27T10:22:02;9.55;;;7.05;;
60502;SDS011;51448;51.660;5.824;2022-09-27T10:25:09;8.75;;;6.50;;
60502;SDS011;51448;51.660;5.824;2022-09-27T10:27:42;8.88;;;6.93;;
60502;SDS011;51448;51.660;5.824;2022-09-27T10:30:24;12.57;;;5.70;;
60502;SDS011;51448;51.660;5.824;2022-09-27T10:33:21;9.32;;;4.72;;
60502;SDS011;51448;51.660;5.824;2022-09-27T10:35:52;8.13;;;4.60;;
60502;SDS011;51448;51.660;5.824;2022-09-27T10:38:28;7.28;;;4.80;;
60502;SDS011;51448;51.660;5.824;2022-09-27T10:43:50;6.97;;;4.07;;
60502;SDS011;51448;51.660;5.824;2022-09-27T10:46:29;6.85;;;3.08;;
60502;SDS011;51448;51.660;5.824;2022-09-27T10:52:18;5.63;;;3.03;;
60502;SDS011;51448;51.660;5.824;2022-09-27T10:57:54;4.28;;;2.13;;
60502;SDS011;51448;51.660;5.824;2022-09-27T11:00:24;4.07;;;1.77;;
60502;SDS011;51448;51.660;5.824;2022-09-27T11:02:59;5.57;;;1.65;;
60502;SDS011;51448;51.660;5.824;2022-09-27T11:05:39;4.93;;;2.30;;
60502;SDS011;51448;51.660;5.824;2022-09-27T11:11:03;4.63;;;2.03;;
60502;SDS011;51448;51.660;5.824;2022-09-27T11:13:56;3.53;;;1.55;;
60502;SDS011;51448;51.660;5.824;2022-09-27T11:19:31;4.10;;;1.30;;
60502;SDS011;51448;51.660;5.824;2022-09-27T11:22:26;4.35;;;1.15;;
60502;SDS011;51448;51.660;5.824;2022-09-27T11:25:19;2.60;;;0.80;;
60502;SDS011;51448;51.660;5.824;2022-09-27T11:28:15;4.70;;;1.10;;
60502;SDS011;51448;51.660;5.824;2022-09-27T11:31:40;3.03;;;1.08;;
60502;SDS011;51448;51.660;5.824;2022-09-27T11:34:46;3.70;;;0.95;;
60502;SDS011;51448;51.660;5.824;2022-09-27T11:47:17;3.50;;;0.70;;
60502;SDS011;51448;51.660;5.824;2022-09-27T11:50:24;3.50;;;0.95;;
60502;SDS011;51448;51.660;5.824;2022-09-27T11:53:19;3.13;;;0.50;;
60502;SDS011;51448;51.660;5.824;2022-09-27T12:00:18;1.75;;;0.45;;
60502;SDS011;51448;51.660;5.824;2022-09-27T12:06:24;2.78;;;0.40;;
60502;SDS011;51448;51.660;5.824;2022-09-27T12:09:14;3.17;;;0.70;;
60502;SDS011;51448;51.660;5.824;2022-09-27T12:12:00;4.03;;;0.80;;
60502;SDS011;51448;51.660;5.824;2022-09-27T12:14:55;3.63;;;0.95;;
60502;SDS011;51448;51.660;5.824;2022-09-27T12:17:35;3.75;;;0.75;;
60502;SDS011;51448;51.660;5.824;2022-09-27T12:20:15;3.35;;;0.80;;
60502;SDS011;51448;51.660;5.824;2022-09-27T12:23:05;3.23;;;0.83;;
60502;SDS011;51448;51.660;5.824;2022-09-27T12:26:17;2.15;;;0.60;;
60502;SDS011;51448;51.660;5.824;2022-09-27T12:28:52;2.67;;;0.60;;
60502;SDS011;51448;51.660;5.824;2022-09-27T12:31:39;1.98;;;0.50;;
60502;SDS011;51448;51.660;5.824;2022-09-27T12:34:21;3.88;;;0.70;;
60502;SDS011;51448;51.660;5.824;2022-09-27T12:37:03;3.78;;;0.60;;
60502;SDS011;51448;51.660;5.824;2022-09-27T12:42:30;5.10;;;0.50;;
60502;SDS011;51448;51.660;5.824;2022-09-27T12:45:12;2.05;;;0.32;;
60502;SDS011;51448;51.660;5.824;2022-09-27T12:47:51;3.40;;;0.75;;
60502;SDS011;51448;51.660;5.824;2022-09-27T12:53:18;1.85;;;0.30;;
60502;SDS011;51448;51.660;5.824;2022-09-27T13:01:31;1.95;;;0.20;;
60502;SDS011;51448;51.660;5.824;2022-09-27T13:13:57;2.15;;;0.30;;
60502;SDS011;51448;51.660;5.824;2022-09-27T13:16:28;2.03;;;0.10;;
60502;SDS011;51448;51.660;5.824;2022-09-27T13:18:56;2.05;;;0.25;;
60502;SDS011;51448;51.660;5.824;2022-09-27T13:33:47;0.60;;;0.30;;
60502;SDS011;51448;51.660;5.824;2022-09-27T13:44:21;2.83;;;0.57;;
60502;SDS011;51448;51.660;5.824;2022-09-27T13:47:19;2.30;;;0.32;;
60502;SDS011;51448;51.660;5.824;2022-09-27T13:50:23;1.75;;;0.40;;
60502;SDS011;51448;51.660;5.824;2022-09-27T13:56:03;4.15;;;0.50;;
60502;SDS011;51448;51.660;5.824;2022-09-27T13:58:41;1.35;;;0.45;;
60502;SDS011;51448;51.660;5.824;2022-09-27T14:01:39;1.05;;;0.30;;
60502;SDS011;51448;51.660;5.824;2022-09-27T14:07:09;2.40;;;0.50;;
60502;SDS011;51448;51.660;5.824;2022-09-27T14:09:44;2.22;;;0.60;;
60502;SDS011;51448;51.660;5.824;2022-09-27T14:12:23;3.08;;;0.70;;
60502;SDS011;51448;51.660;5.824;2022-09-27T14:14:58;2.70;;;0.55;;
60502;SDS011;51448;51.660;5.824;2022-09-27T14:17:31;3.40;;;0.70;;
60502;SDS011;51448;51.660;5.824;2022-09-27T14:20:00;2.15;;;0.80;;
60502;SDS011;51448;51.660;5.824;2022-09-27T14:22:30;4.82;;;0.95;;
60502;SDS011;51448;51.660;5.824;2022-09-27T14:25:00;2.63;;;0.85;;
60502;SDS011;51448;51.660;5.824;2022-09-27T14:27:37;3.33;;;1.10;;
60502;SDS011;51448;51.660;5.824;2022-09-27T14:30:33;4.32;;;1.02;;
60502;SDS011;51448;51.660;5.824;2022-09-27T14:33:28;3.75;;;1.08;;
60502;SDS011;51448;51.660;5.824;2022-09-27T14:39:27;6.25;;;1.30;;
60502;SDS011;51448;51.660;5.824;2022-09-27T14:42:02;3.58;;;1.10;;
60502;SDS011;51448;51.660;5.824;2022-09-27T14:44:43;3.92;;;1.02;;
60502;SDS011;51448;51.660;5.824;2022-09-27T14:49:59;4.00;;;1.17;;
60502;SDS011;51448;51.660;5.824;2022-09-27T14:52:45;5.80;;;1.38;;
60502;SDS011;51448;51.660;5.824;2022-09-27T14:55:16;7.82;;;1.40;;
60502;SDS011;51448;51.660;5.824;2022-09-27T14:58:05;4.55;;;1.17;;
60502;SDS011;51448;51.660;5.824;2022-09-27T15:01:01;5.93;;;1.70;;
60502;SDS011;51448;51.660;5.824;2022-09-27T15:03:29;6.32;;;1.70;;
60502;SDS011;51448;51.660;5.824;2022-09-27T15:06:05;5.53;;;1.63;;
60502;SDS011;51448;51.660;5.824;2022-09-27T15:08:33;3.90;;;1.45;;
60502;SDS011;51448;51.660;5.824;2022-09-27T15:11:02;5.22;;;1.30;;
60502;SDS011;51448;51.660;5.824;2022-09-27T15:13:36;4.97;;;1.20;;
60502;SDS011;51448;51.660;5.824;2022-09-27T15:16:07;5.68;;;1.30;;
60502;SDS011;51448;51.660;5.824;2022-09-27T15:18:44;4.13;;;1.08;;
60502;SDS011;51448;51.660;5.824;2022-09-27T15:21:28;6.03;;;1.20;;
60502;SDS011;51448;51.660;5.824;2022-09-27T15:24:00;5.60;;;1.00;;
60502;SDS011;51448;51.660;5.824;2022-09-27T15:26:34;5.15;;;1.20;;
60502;SDS011;51448;51.660;5.824;2022-09-27T15:29:16;4.35;;;1.38;;
60502;SDS011;51448;51.660;5.824;2022-09-27T15:32:01;5.03;;;1.08;;
60502;SDS011;51448;51.660;5.824;2022-09-27T15:34:32;3.33;;;1.10;;
60502;SDS011;51448;51.660;5.824;2022-09-27T15:37:01;5.35;;;1.13;;
60502;SDS011;51448;51.660;5.824;2022-09-27T15:39:32;4.88;;;1.02;;
60502;SDS011;51448;51.660;5.824;2022-09-27T15:48:12;5.43;;;1.10;;
60502;SDS011;51448;51.660;5.824;2022-09-27T15:52:43;4.85;;;1.13;;
60502;SDS011;51448;51.660;5.824;2022-09-27T15:55:17;6.82;;;1.20;;
60502;SDS011;51448;51.660;5.824;2022-09-27T16:00:28;5.88;;;1.30;;
60502;SDS011;51448;51.660;5.824;2022-09-27T16:02:56;5.05;;;1.50;;
60502;SDS011;51448;51.660;5.824;2022-09-27T16:05:23;4.65;;;1.55;;
60502;SDS011;51448;51.660;5.824;2022-09-27T16:10:35;5.38;;;1.80;;
60502;SDS011;51448;51.660;5.824;2022-09-27T16:13:13;5.93;;;2.00;;
60502;SDS011;51448;51.660;5.824;2022-09-27T16:15:42;4.22;;;1.73;;
60502;SDS011;51448;51.660;5.824;2022-09-27T16:18:11;6.63;;;2.08;;
60502;SDS011;51448;51.660;5.824;2022-09-27T16:20:39;7.40;;;1.88;;
60502;SDS011;51448;51.660;5.824;2022-09-27T16:23:06;4.45;;;1.42;;
60502;SDS011;51448;51.660;5.824;2022-09-27T16:25:34;6.72;;;1.42;;
60502;SDS011;51448;51.660;5.824;2022-09-27T16:28:02;5.28;;;1.50;;
60502;SDS011;51448;51.660;5.824;2022-09-27T16:30:31;6.15;;;1.08;;
60502;SDS011;51448;51.660;5.824;2022-09-27T16:32:59;7.40;;;1.20;;
60502;SDS011;51448;51.660;5.824;2022-09-27T16:35:26;4.88;;;1.00;;
60502;SDS011;51448;51.660;5.824;2022-09-27T16:37:54;3.95;;;1.15;;
60502;SDS011;51448;51.660;5.824;2022-09-27T16:40:22;6.15;;;1.20;;
60502;SDS011;51448;51.660;5.824;2022-09-27T16:42:49;4.82;;;1.20;;
60502;SDS011;51448;51.660;5.824;2022-09-27T16:45:17;5.88;;;1.10;;
60502;SDS011;51448;51.660;5.824;2022-09-27T16:47:46;4.35;;;1.20;;
60502;SDS011;51448;51.660;5.824;2022-09-27T16:50:14;5.00;;;1.30;;
60502;SDS011;51448;51.660;5.824;2022-09-27T16:53:00;4.95;;;1.13;;
60502;SDS011;51448;51.660;5.824;2022-09-27T16:55:27;3.95;;;1.17;;
60502;SDS011;51448;51.660;5.824;2022-09-27T16:57:58;3.67;;;1.00;;
60502;SDS011;51448;51.660;5.824;2022-09-27T17:00:26;4.18;;;0.93;;
60502;SDS011;51448;51.660;5.824;2022-09-27T17:02:53;4.75;;;1.13;;
60502;SDS011;51448;51.660;5.824;2022-09-27T17:05:21;6.15;;;1.58;;
60502;SDS011;51448;51.660;5.824;2022-09-27T17:07:49;5.40;;;1.60;;
60502;SDS011;51448;51.660;5.824;2022-09-27T17:10:21;3.67;;;1.30;;
60502;SDS011;51448;51.660;5.824;2022-09-27T17:12:49;4.13;;;1.40;;
60502;SDS011;51448;51.660;5.824;2022-09-27T17:15:17;5.30;;;1.35;;
60502;SDS011;51448;51.660;5.824;2022-09-27T17:17:47;6.45;;;1.50;;
60502;SDS011;51448;51.660;5.824;2022-09-27T17:20:16;5.05;;;1.50;;
60502;SDS011;51448;51.660;5.824;2022-09-27T17:22:43;6.78;;;2.20;;
60502;SDS011;51448;51.660;5.824;2022-09-27T17:25:11;6.55;;;1.80;;
60502;SDS011;51448;51.660;5.824;2022-09-27T17:27:38;6.30;;;1.88;;
60502;SDS011;51448;51.660;5.824;2022-09-27T17:30:06;7.03;;;2.22;;
60502;SDS011;51448;51.660;5.824;2022-09-27T17:32:34;4.68;;;1.90;;
60502;SDS011;51448;51.660;5.824;2022-09-27T17:35:01;4.85;;;1.73;;
60502;SDS011;51448;51.660;5.824;2022-09-27T17:37:29;5.00;;;1.90;;
60502;SDS011;51448;51.660;5.824;2022-09-27T17:39:56;7.55;;;1.98;;
60502;SDS011;51448;51.660;5.824;2022-09-27T17:42:24;7.22;;;2.10;;
60502;SDS011;51448;51.660;5.824;2022-09-27T17:44:51;7.10;;;2.17;;
60502;SDS011;51448;51.660;5.824;2022-09-27T17:47:18;7.00;;;2.05;;
60502;SDS011;51448;51.660;5.824;2022-09-27T17:50:18;5.45;;;2.13;;
60502;SDS011;51448;51.660;5.824;2022-09-27T17:52:55;6.22;;;2.10;;
60502;SDS011;51448;51.660;5.824;2022-09-27T17:55:24;5.70;;;2.08;;
60502;SDS011;51448;51.660;5.824;2022-09-27T17:57:52;7.40;;;2.30;;
60502;SDS011;51448;51.660;5.824;2022-09-27T18:00:20;6.03;;;2.50;;
60502;SDS011;51448;51.660;5.824;2022-09-27T18:02:47;7.10;;;2.30;;
60502;SDS011;51448;51.660;5.824;2022-09-27T18:05:15;7.57;;;2.35;;
60502;SDS011;51448;51.660;5.824;2022-09-27T18:07:47;6.53;;;2.30;;
60502;SDS011;51448;51.660;5.824;2022-09-27T18:10:14;8.43;;;2.00;;
60502;SDS011;51448;51.660;5.824;2022-09-27T18:12:43;6.97;;;2.42;;
60502;SDS011;51448;51.660;5.824;2022-09-27T18:15:13;8.75;;;2.80;;
60502;SDS011;51448;51.660;5.824;2022-09-27T18:17:43;7.13;;;2.30;;